x

Buoy B01 - Western Maine Shelf (44030) Wave Buoy

6:04pm - Fri 17th Nov 2017 All times are EST. -5 hours from GMT.

  • Sig Wave height 2.6ft
  • Peak Period 3s
  • Wind
    22mph, 27mph gusts
  • Sea Temp 50°f
  • Air Temp 37°f
  • Sea Pressure 1013.9mb
  • Buoy B01 - Western Maine Shelf
  • Buoy B01 - Western Maine Shelf

More Historic Weather Station data

Upgrade to MSW Pro to gain access to the past 30 days of data for over 8000 Wavebouys and Weather Stations around the globe.

Join

Comparision Forecast

View Surf forecast
   
Fri 11/17 6:04pm 2.5ft 3s 22 27 mph 1013.9mb 50f 37f
5:04pm 2.5ft 3s 22 31 mph 1013.3mb 50f 38f
4:04pm 3.5ft 4s 22 25 mph 1012.6mb 50f 38f
3:04pm 3ft 4s 27 31 mph 1011.1mb 50f 40f
2:04pm 3ft 4s 25 29 mph 1010.4mb 50f 40f
12:04pm 4.5ft 4s 27 31 mph 1009.7mb 50f 40f
11:04am 3.5ft 4s 27 34 mph 1009.9mb 50f 40f
10:04am 3.5ft 4s 25 34 mph 1009.9mb 50f 40f
9:04am 3ft 4s 25 31 mph 1009.3mb 50f 39f
8:04am 3ft 4s 25 34 mph 1008.8mb 50f 39f
7:04am 3.5ft 4s 27 31 mph 1007.9mb 50f 40f
6:04am 3.5ft 4s 22 29 mph 1006.7mb 50f 41f
5:04am 5.5ft 11s 27 31 mph 1005.7mb 49f 41f
4:04am  -   -  27 31 mph 1004.7mb 50f 42f
3:04am 2.5ft 3s 25 31 mph 1004.4mb 49f 43f
2:04am 2ft 3s 22 27 mph 1004mb 49f 43f
1:04am 2.5ft 4s 16 20 mph 1004mb 49f 43f
12:04am 4.5ft 11s 13 16 mph - 50f 43f
Thu 11/16 11:04pm 4.5ft 11s 13 16 mph - 50f 43f
10:04pm 3ft 5s 18 22 mph - 50f 43f
9:04pm 4ft 6s 16 18 mph - 50f 43f
8:04pm 4.5ft 6s 18 20 mph - 50f 44f
7:04pm 4.5ft 6s 18 22 mph - 50f 46f
6:04pm 5ft 6s 4 11 mph - 50f 48f
5:04pm 6ft 6s 4 7 mph - 50f 49f
4:04pm 6.5ft 6s 9 11 mph - 50f 49f
3:04pm 6.5ft 6s 16 18 mph - 50f 49f
2:04pm 6ft 11s 18 22 mph - 50f 49f
1:04pm 5ft 5s 20 25 mph - 50f 49f
12:04pm 6ft 5s 20 22 mph - 50f 49f
11:04am 6ft 5s 22 25 mph - 50f 48f
10:04am 4.5ft 5s 25 29 mph - 51f 48f
9:04am 3.5ft 5s 22 27 mph - 51f 48f
8:04am  -   -  20 22 mph - 51f 48f
7:04am  -   -  18 22 mph - 51f 47f
6:04am  -   -  16 20 mph - 51f 47f
5:04am  -   -  16 20 mph - 51f 46f
4:04am 5.5ft 11s 13 18 mph - 51f 45f
3:04am 4ft 11s 11 13 mph - 51f 44f
2:04am 4ft 11s 9 11 mph - 51f 43f
12:04am 4ft 11s 7 11 mph - 51f 41f
Wed 11/15 11:04pm 4.5ft 11s 9 13 mph - 51f 41f
10:04pm 4.5ft 11s 4 9 mph - 51f 40f
9:04pm 4ft 11s 7 9 mph - 51f 40f
8:04pm 3.5ft 8s 9 11 mph - 51f 40f
7:04pm 4.5ft 11s 9 11 mph - 51f 40f
6:04pm 4.5ft 11s 4 9 mph - 51f 40f
5:04pm 3.5ft 11s 4 7 mph - 51f 40f
4:04pm 5ft 11s 9 13 mph - 51f 40f
3:04pm 5ft 11s 7 11 mph - 51f 40f
2:04pm 7ft 11s 7 9 mph - 51f 40f
1:04pm 5.5ft 11s 9 13 mph - 51f 39f
12:04pm  -   -  9 13 mph - 51f 40f
11:04am 4ft 6s 11 16 mph - 51f 39f
10:04am  -   -  13 16 mph - 51f 40f
9:04am 6ft 11s 16 18 mph - 51f 39f
8:04am 6ft 11s 16 20 mph - 51f 39f
7:04am 5ft 8s 18 22 mph - 51f 38f
6:04am 4.5ft 8s 16 20 mph - 51f 38f
5:04am 6ft 8s 16 18 mph - 51f 38f
3:04am 5.5ft 8s 13 18 mph - 51f 39f
2:04am 5ft 8s 13 18 mph - 51f 40f
12:04am 5ft 8s 13 18 mph - 51f 40f
Tue 11/14 11:04pm 4.5ft 8s 16 20 mph - 52f 41f
10:04pm 5ft 8s 16 18 mph - 52f 41f
9:04pm 5ft 8s 16 20 mph - 52f 42f
8:04pm 4.5ft 8s 16 20 mph - 52f 42f
7:04pm 4.5ft 8s 13 18 mph - 52f 42f
6:04pm 4.5ft 8s 16 18 mph - 52f 42f
5:04pm 4ft 6s 13 18 mph - 51f 42f
4:04pm 5ft 8s 11 16 mph - 51f 42f
3:04pm 4.5ft 8s 13 18 mph - 51f 42f
2:04pm 4.5ft 5s 16 18 mph - 51f 42f
1:04pm 3.5ft 5s 16 18 mph - 51f 42f
12:04pm 4.5ft 5s 16 20 mph - 51f 42f
11:04am 5ft 5s 18 22 mph - 52f 42f
10:04am 6ft 5s 20 27 mph - 52f 42f
9:04am 5ft 5s 22 27 mph - 52f 41f
8:04am 5.5ft 5s 22 27 mph - 52f 42f
7:04am 4.5ft 5s 22 27 mph - 52f 41f
6:04am 4.5ft 5s 22 27 mph - 52f 41f
5:04am 4.5ft 5s 20 27 mph - 52f 41f
3:04am 3.5ft 5s 20 22 mph - 51f 40f
2:04am 3.5ft 5s 16 22 mph - 51f 41f